sensor_id;sensor_type;location;lat;lon;timestamp;temperature;humidity
25264;DHT22;13211;51.796;5.808;2022-09-12T00:14:01;13.90;99.90
25264;DHT22;13211;51.796;5.808;2022-09-12T00:16:33;14.00;99.90
25264;DHT22;13211;51.796;5.808;2022-09-12T00:19:03;14.00;99.90
25264;DHT22;13211;51.796;5.808;2022-09-12T00:21:33;14.00;99.90
25264;DHT22;13211;51.796;5.808;2022-09-12T00:24:04;14.00;99.90
25264;DHT22;13211;51.796;5.808;2022-09-12T00:26:33;13.90;99.90
25264;DHT22;13211;51.796;5.808;2022-09-12T00:29:04;13.90;99.90
25264;DHT22;13211;51.796;5.808;2022-09-12T00:31:32;13.80;99.90
25264;DHT22;13211;51.796;5.808;2022-09-12T00:34:00;13.80;99.90
25264;DHT22;13211;51.796;5.808;2022-09-12T00:36:29;13.70;99.90
25264;DHT22;13211;51.796;5.808;2022-09-12T00:38:57;13.70;99.90
25264;DHT22;13211;51.796;5.808;2022-09-12T00:41:33;13.60;99.90
25264;DHT22;13211;51.796;5.808;2022-09-12T00:47:00;13.50;99.90
25264;DHT22;13211;51.796;5.808;2022-09-12T00:49:49;13.50;99.90
25264;DHT22;13211;51.796;5.808;2022-09-12T00:58:09;13.40;99.90
25264;DHT22;13211;51.796;5.808;2022-09-12T01:00:35;13.40;99.90
25264;DHT22;13211;51.796;5.808;2022-09-12T01:03:11;13.40;99.90
25264;DHT22;13211;51.796;5.808;2022-09-12T01:06:06;13.40;99.90
25264;DHT22;13211;51.796;5.808;2022-09-12T01:08:36;13.30;99.90
25264;DHT22;13211;51.796;5.808;2022-09-12T01:11:05;13.30;99.90
25264;DHT22;13211;51.796;5.808;2022-09-12T01:13:35;13.20;99.90
25264;DHT22;13211;51.796;5.808;2022-09-12T01:16:04;13.20;99.90
25264;DHT22;13211;51.796;5.808;2022-09-12T01:18:50;13.20;99.90
25264;DHT22;13211;51.796;5.808;2022-09-12T01:27:15;13.10;99.90
25264;DHT22;13211;51.796;5.808;2022-09-12T01:32:54;13.10;99.90
25264;DHT22;13211;51.796;5.808;2022-09-12T01:38:44;13.10;99.90
25264;DHT22;13211;51.796;5.808;2022-09-12T01:44:20;13.00;99.90
25264;DHT22;13211;51.796;5.808;2022-09-12T01:47:04;13.00;99.90
25264;DHT22;13211;51.796;5.808;2022-09-12T01:49:54;13.00;99.90
25264;DHT22;13211;51.796;5.808;2022-09-12T01:52:58;13.00;99.90
25264;DHT22;13211;51.796;5.808;2022-09-12T01:55:24;12.90;99.90
25264;DHT22;13211;51.796;5.808;2022-09-12T01:58:21;12.90;99.90
25264;DHT22;13211;51.796;5.808;2022-09-12T02:01:03;12.90;99.90
25264;DHT22;13211;51.796;5.808;2022-09-12T02:03:43;13.00;99.90
25264;DHT22;13211;51.796;5.808;2022-09-12T02:06:23;12.90;99.90
25264;DHT22;13211;51.796;5.808;2022-09-12T02:08:58;12.90;99.90
25264;DHT22;13211;51.796;5.808;2022-09-12T02:11:33;12.90;99.90
25264;DHT22;13211;51.796;5.808;2022-09-12T02:14:41;12.90;99.90
25264;DHT22;13211;51.796;5.808;2022-09-12T02:17:08;12.90;99.90
25264;DHT22;13211;51.796;5.808;2022-09-12T02:22:34;12.90;99.90
25264;DHT22;13211;51.796;5.808;2022-09-12T02:25:05;12.90;99.90
25264;DHT22;13211;51.796;5.808;2022-09-12T02:27:41;12.90;99.90
25264;DHT22;13211;51.796;5.808;2022-09-12T02:30:12;12.80;99.90
25264;DHT22;13211;51.796;5.808;2022-09-12T02:36:08;12.80;99.90
25264;DHT22;13211;51.796;5.808;2022-09-12T02:38:43;12.90;99.90
25264;DHT22;13211;51.796;5.808;2022-09-12T02:41:15;12.90;99.90
25264;DHT22;13211;51.796;5.808;2022-09-12T02:43:44;12.80;99.90
25264;DHT22;13211;51.796;5.808;2022-09-12T02:46:26;12.80;99.90
25264;DHT22;13211;51.796;5.808;2022-09-12T02:48:58;12.90;99.90
25264;DHT22;13211;51.796;5.808;2022-09-12T02:51:37;12.80;99.90
25264;DHT22;13211;51.796;5.808;2022-09-12T02:54:05;12.80;99.90
25264;DHT22;13211;51.796;5.808;2022-09-12T02:56:41;12.70;99.90
25264;DHT22;13211;51.796;5.808;2022-09-12T02:59:11;12.70;99.90
25264;DHT22;13211;51.796;5.808;2022-09-12T03:07:50;12.70;99.90
25264;DHT22;13211;51.796;5.808;2022-09-12T03:10:48;12.60;99.90
25264;DHT22;13211;51.796;5.808;2022-09-12T03:13:24;12.70;99.90
25264;DHT22;13211;51.796;5.808;2022-09-12T03:19:00;12.70;99.90
25264;DHT22;13211;51.796;5.808;2022-09-12T03:21:36;12.60;99.90
25264;DHT22;13211;51.796;5.808;2022-09-12T03:24:42;12.60;99.90
25264;DHT22;13211;51.796;5.808;2022-09-12T03:27:35;12.60;99.90
25264;DHT22;13211;51.796;5.808;2022-09-12T03:30:11;12.60;99.90
25264;DHT22;13211;51.796;5.808;2022-09-12T03:32:50;12.60;99.90
25264;DHT22;13211;51.796;5.808;2022-09-12T03:35:20;12.60;99.90
25264;DHT22;13211;51.796;5.808;2022-09-12T03:37:50;12.60;99.90
25264;DHT22;13211;51.796;5.808;2022-09-12T03:40:24;12.60;99.90
25264;DHT22;13211;51.796;5.808;2022-09-12T03:42:51;12.60;99.90
25264;DHT22;13211;51.796;5.808;2022-09-12T03:45:19;12.60;99.90
25264;DHT22;13211;51.796;5.808;2022-09-12T03:47:47;12.70;99.90
25264;DHT22;13211;51.796;5.808;2022-09-12T03:50:15;12.70;99.90
25264;DHT22;13211;51.796;5.808;2022-09-12T03:52:43;12.70;99.90
25264;DHT22;13211;51.796;5.808;2022-09-12T03:55:11;12.60;99.90
25264;DHT22;13211;51.796;5.808;2022-09-12T03:57:42;12.60;99.90
25264;DHT22;13211;51.796;5.808;2022-09-12T04:00:10;12.60;99.90
25264;DHT22;13211;51.796;5.808;2022-09-12T04:02:43;12.60;99.90
25264;DHT22;13211;51.796;5.808;2022-09-12T04:05:11;12.60;99.90
25264;DHT22;13211;51.796;5.808;2022-09-12T04:07:39;12.60;99.90
25264;DHT22;13211;51.796;5.808;2022-09-12T04:10:06;12.60;99.90
25264;DHT22;13211;51.796;5.808;2022-09-12T04:12:37;12.60;99.90
25264;DHT22;13211;51.796;5.808;2022-09-12T04:15:06;12.60;99.90
25264;DHT22;13211;51.796;5.808;2022-09-12T04:17:34;12.60;99.90
25264;DHT22;13211;51.796;5.808;2022-09-12T04:20:06;12.60;99.90
25264;DHT22;13211;51.796;5.808;2022-09-12T04:22:34;12.60;99.90
25264;DHT22;13211;51.796;5.808;2022-09-12T04:25:03;12.70;99.90
25264;DHT22;13211;51.796;5.808;2022-09-12T04:27:34;12.70;99.90
25264;DHT22;13211;51.796;5.808;2022-09-12T04:30:03;12.70;99.90
25264;DHT22;13211;51.796;5.808;2022-09-12T04:32:33;12.70;99.90
25264;DHT22;13211;51.796;5.808;2022-09-12T04:35:02;12.70;99.90
25264;DHT22;13211;51.796;5.808;2022-09-12T04:37:33;12.70;99.90
25264;DHT22;13211;51.796;5.808;2022-09-12T04:40:05;12.80;99.90
25264;DHT22;13211;51.796;5.808;2022-09-12T04:42:33;12.80;99.90
25264;DHT22;13211;51.796;5.808;2022-09-12T04:45:03;12.80;99.90
25264;DHT22;13211;51.796;5.808;2022-09-12T04:47:39;12.90;99.90
25264;DHT22;13211;51.796;5.808;2022-09-12T04:50:07;12.90;99.90
25264;DHT22;13211;51.796;5.808;2022-09-12T04:52:34;13.00;99.90
25264;DHT22;13211;51.796;5.808;2022-09-12T04:55:03;13.10;99.90
25264;DHT22;13211;51.796;5.808;2022-09-12T04:57:34;13.10;99.90
25264;DHT22;13211;51.796;5.808;2022-09-12T05:00:04;13.10;99.90
25264;DHT22;13211;51.796;5.808;2022-09-12T05:02:34;13.20;99.90
25264;DHT22;13211;51.796;5.808;2022-09-12T05:05:07;13.20;99.90
25264;DHT22;13211;51.796;5.808;2022-09-12T05:07:35;13.20;99.90
25264;DHT22;13211;51.796;5.808;2022-09-12T05:10:04;13.30;99.90
25264;DHT22;13211;51.796;5.808;2022-09-12T05:12:32;13.30;99.90
25264;DHT22;13211;51.796;5.808;2022-09-12T05:15:06;13.30;99.90
25264;DHT22;13211;51.796;5.808;2022-09-12T05:17:34;13.30;99.90
25264;DHT22;13211;51.796;5.808;2022-09-12T05:20:04;13.40;99.90
25264;DHT22;13211;51.796;5.808;2022-09-12T05:22:32;13.40;99.90
25264;DHT22;13211;51.796;5.808;2022-09-12T05:25:00;13.40;99.90
25264;DHT22;13211;51.796;5.808;2022-09-12T05:27:31;13.40;99.90
25264;DHT22;13211;51.796;5.808;2022-09-12T05:30:03;13.40;99.90
25264;DHT22;13211;51.796;5.808;2022-09-12T05:32:32;13.50;99.90
25264;DHT22;13211;51.796;5.808;2022-09-12T05:35:02;13.50;99.90
25264;DHT22;13211;51.796;5.808;2022-09-12T05:37:32;13.60;99.90
25264;DHT22;13211;51.796;5.808;2022-09-12T05:40:01;13.60;99.90
25264;DHT22;13211;51.796;5.808;2022-09-12T05:42:37;13.70;99.90
25264;DHT22;13211;51.796;5.808;2022-09-12T05:45:06;13.70;99.90
25264;DHT22;13211;51.796;5.808;2022-09-12T05:47:35;13.80;99.90
25264;DHT22;13211;51.796;5.808;2022-09-12T05:50:34;13.80;99.90
25264;DHT22;13211;51.796;5.808;2022-09-12T05:53:05;13.90;99.90
25264;DHT22;13211;51.796;5.808;2022-09-12T05:55:35;13.90;99.90
25264;DHT22;13211;51.796;5.808;2022-09-12T05:58:03;13.90;99.90
25264;DHT22;13211;51.796;5.808;2022-09-12T06:00:35;14.00;99.90
25264;DHT22;13211;51.796;5.808;2022-09-12T06:03:03;14.00;99.90
25264;DHT22;13211;51.796;5.808;2022-09-12T06:05:33;14.10;99.90
25264;DHT22;13211;51.796;5.808;2022-09-12T06:08:02;14.10;99.90
25264;DHT22;13211;51.796;5.808;2022-09-12T06:10:31;14.20;99.90
25264;DHT22;13211;51.796;5.808;2022-09-12T06:13:36;14.20;99.90
25264;DHT22;13211;51.796;5.808;2022-09-12T06:16:09;14.30;99.90
25264;DHT22;13211;51.796;5.808;2022-09-12T06:18:38;14.30;99.90
25264;DHT22;13211;51.796;5.808;2022-09-12T06:21:08;14.40;99.90
25264;DHT22;13211;51.796;5.808;2022-09-12T06:23:46;14.40;99.90
25264;DHT22;13211;51.796;5.808;2022-09-12T06:26:16;14.40;99.90
25264;DHT22;13211;51.796;5.808;2022-09-12T06:28:45;14.50;99.90
25264;DHT22;13211;51.796;5.808;2022-09-12T06:31:22;14.50;99.90
25264;DHT22;13211;51.796;5.808;2022-09-12T06:33:56;14.60;99.90
25264;DHT22;13211;51.796;5.808;2022-09-12T06:36:28;14.60;99.90
25264;DHT22;13211;51.796;5.808;2022-09-12T06:39:00;14.70;99.90
25264;DHT22;13211;51.796;5.808;2022-09-12T06:41:31;14.70;99.90
25264;DHT22;13211;51.796;5.808;2022-09-12T06:44:01;14.70;99.90
25264;DHT22;13211;51.796;5.808;2022-09-12T06:46:29;14.70;99.90
25264;DHT22;13211;51.796;5.808;2022-09-12T06:49:00;14.80;99.90
25264;DHT22;13211;51.796;5.808;2022-09-12T06:51:29;14.70;99.90
25264;DHT22;13211;51.796;5.808;2022-09-12T06:54:03;14.70;99.90
25264;DHT22;13211;51.796;5.808;2022-09-12T06:56:31;14.80;99.90
25264;DHT22;13211;51.796;5.808;2022-09-12T06:59:01;14.80;99.90
25264;DHT22;13211;51.796;5.808;2022-09-12T07:01:31;14.80;99.90
25264;DHT22;13211;51.796;5.808;2022-09-12T07:04:04;14.80;99.90
25264;DHT22;13211;51.796;5.808;2022-09-12T07:06:37;14.80;99.90
25264;DHT22;13211;51.796;5.808;2022-09-12T07:09:11;14.80;99.90
25264;DHT22;13211;51.796;5.808;2022-09-12T07:11:40;14.80;99.90
25264;DHT22;13211;51.796;5.808;2022-09-12T07:14:10;14.80;99.90
25264;DHT22;13211;51.796;5.808;2022-09-12T07:16:41;14.90;99.90
25264;DHT22;13211;51.796;5.808;2022-09-12T07:19:12;14.90;99.90
25264;DHT22;13211;51.796;5.808;2022-09-12T07:21:39;15.00;99.90
25264;DHT22;13211;51.796;5.808;2022-09-12T07:24:08;15.00;99.90
25264;DHT22;13211;51.796;5.808;2022-09-12T07:26:38;15.10;99.90
25264;DHT22;13211;51.796;5.808;2022-09-12T07:29:12;15.10;99.90
25264;DHT22;13211;51.796;5.808;2022-09-12T07:32:02;15.10;99.90
25264;DHT22;13211;51.796;5.808;2022-09-12T07:34:33;15.20;99.90
25264;DHT22;13211;51.796;5.808;2022-09-12T07:37:08;15.30;99.90
25264;DHT22;13211;51.796;5.808;2022-09-12T07:39:36;15.30;99.90
25264;DHT22;13211;51.796;5.808;2022-09-12T07:42:04;15.40;99.90
25264;DHT22;13211;51.796;5.808;2022-09-12T07:44:32;15.50;99.90
25264;DHT22;13211;51.796;5.808;2022-09-12T07:47:01;15.60;99.90
25264;DHT22;13211;51.796;5.808;2022-09-12T07:49:29;15.70;99.90
25264;DHT22;13211;51.796;5.808;2022-09-12T07:51:59;15.80;99.90
25264;DHT22;13211;51.796;5.808;2022-09-12T07:54:27;15.90;99.90
25264;DHT22;13211;51.796;5.808;2022-09-12T07:56:55;16.00;99.90
25264;DHT22;13211;51.796;5.808;2022-09-12T07:59:23;16.00;99.90
25264;DHT22;13211;51.796;5.808;2022-09-12T08:02:11;16.10;99.90
25264;DHT22;13211;51.796;5.808;2022-09-12T08:04:46;16.30;99.90
25264;DHT22;13211;51.796;5.808;2022-09-12T08:07:15;16.40;99.90
25264;DHT22;13211;51.796;5.808;2022-09-12T08:09:53;16.40;99.90
25264;DHT22;13211;51.796;5.808;2022-09-12T08:12:22;16.50;99.90
25264;DHT22;13211;51.796;5.808;2022-09-12T08:14:50;16.60;99.90
25264;DHT22;13211;51.796;5.808;2022-09-12T08:17:18;16.70;99.90
25264;DHT22;13211;51.796;5.808;2022-09-12T08:19:49;16.80;99.90
25264;DHT22;13211;51.796;5.808;2022-09-12T08:22:19;16.80;99.90
25264;DHT22;13211;51.796;5.808;2022-09-12T08:24:48;16.90;99.90
25264;DHT22;13211;51.796;5.808;2022-09-12T08:27:15;16.90;99.90
25264;DHT22;13211;51.796;5.808;2022-09-12T08:29:44;17.00;99.90
25264;DHT22;13211;51.796;5.808;2022-09-12T08:32:12;17.10;99.90
25264;DHT22;13211;51.796;5.808;2022-09-12T08:34:40;17.20;99.90
25264;DHT22;13211;51.796;5.808;2022-09-12T08:37:08;17.40;99.90
25264;DHT22;13211;51.796;5.808;2022-09-12T08:39:36;17.40;99.90
25264;DHT22;13211;51.796;5.808;2022-09-12T08:42:05;17.50;99.90
25264;DHT22;13211;51.796;5.808;2022-09-12T08:47:25;17.80;99.90
25264;DHT22;13211;51.796;5.808;2022-09-12T08:50:16;17.90;99.90
25264;DHT22;13211;51.796;5.808;2022-09-12T08:53:03;18.10;99.90
25264;DHT22;13211;51.796;5.808;2022-09-12T08:58:22;18.40;99.90
25264;DHT22;13211;51.796;5.808;2022-09-12T09:01:18;18.50;99.90
25264;DHT22;13211;51.796;5.808;2022-09-12T09:04:41;18.70;99.90
25264;DHT22;13211;51.796;5.808;2022-09-12T09:10:02;19.10;99.90
25264;DHT22;13211;51.796;5.808;2022-09-12T09:20:55;20.00;99.90
25264;DHT22;13211;51.796;5.808;2022-09-12T09:23:41;20.30;99.90
25264;DHT22;13211;51.796;5.808;2022-09-12T09:26:16;20.60;99.90
25264;DHT22;13211;51.796;5.808;2022-09-12T09:28:50;20.80;99.90
25264;DHT22;13211;51.796;5.808;2022-09-12T09:31:21;21.00;99.90
25264;DHT22;13211;51.796;5.808;2022-09-12T09:33:50;21.20;99.90
25264;DHT22;13211;51.796;5.808;2022-09-12T09:39:26;21.60;99.90
25264;DHT22;13211;51.796;5.808;2022-09-12T09:42:23;21.80;99.90
25264;DHT22;13211;51.796;5.808;2022-09-12T09:44:56;21.90;99.90
25264;DHT22;13211;51.796;5.808;2022-09-12T09:47:36;22.00;99.90
25264;DHT22;13211;51.796;5.808;2022-09-12T09:50:04;22.20;99.90
25264;DHT22;13211;51.796;5.808;2022-09-12T09:52:34;22.40;99.90
25264;DHT22;13211;51.796;5.808;2022-09-12T09:55:09;22.60;99.90
25264;DHT22;13211;51.796;5.808;2022-09-12T09:57:43;22.80;99.90
25264;DHT22;13211;51.796;5.808;2022-09-12T10:06:23;23.50;99.90
25264;DHT22;13211;51.796;5.808;2022-09-12T10:09:04;23.60;99.90
25264;DHT22;13211;51.796;5.808;2022-09-12T10:11:32;23.60;99.90
25264;DHT22;13211;51.796;5.808;2022-09-12T10:17:28;23.90;99.90
25264;DHT22;13211;51.796;5.808;2022-09-12T10:20:02;24.20;99.90
25264;DHT22;13211;51.796;5.808;2022-09-12T10:22:51;24.30;99.90
25264;DHT22;13211;51.796;5.808;2022-09-12T10:25:22;24.50;99.90
25264;DHT22;13211;51.796;5.808;2022-09-12T10:27:56;24.40;99.90
25264;DHT22;13211;51.796;5.808;2022-09-12T10:30:25;24.40;99.90
25264;DHT22;13211;51.796;5.808;2022-09-12T10:33:14;24.50;99.90
25264;DHT22;13211;51.796;5.808;2022-09-12T10:35:46;24.80;99.90
25264;DHT22;13211;51.796;5.808;2022-09-12T10:38:23;25.10;99.90
25264;DHT22;13211;51.796;5.808;2022-09-12T10:41:07;25.20;99.90
25264;DHT22;13211;51.796;5.808;2022-09-12T10:43:40;25.40;99.90
25264;DHT22;13211;51.796;5.808;2022-09-12T10:48:45;25.90;99.90
25264;DHT22;13211;51.796;5.808;2022-09-12T10:51:34;26.10;99.90
25264;DHT22;13211;51.796;5.808;2022-09-12T10:54:06;26.30;99.90
25264;DHT22;13211;51.796;5.808;2022-09-12T11:02:36;26.40;99.90
25264;DHT22;13211;51.796;5.808;2022-09-12T11:17:24;27.10;99.90
25264;DHT22;13211;51.796;5.808;2022-09-12T11:26:18;27.10;99.90
25264;DHT22;13211;51.796;5.808;2022-09-12T11:29:05;27.10;99.90
25264;DHT22;13211;51.796;5.808;2022-09-12T11:34:38;27.50;99.90
25264;DHT22;13211;51.796;5.808;2022-09-12T11:42:46;27.80;99.90
25264;DHT22;13211;51.796;5.808;2022-09-12T11:45:22;27.80;99.90
25264;DHT22;13211;51.796;5.808;2022-09-12T11:47:57;27.80;99.90
25264;DHT22;13211;51.796;5.808;2022-09-12T11:50:29;28.00;99.90
25264;DHT22;13211;51.796;5.808;2022-09-12T11:53:11;28.20;99.90
25264;DHT22;13211;51.796;5.808;2022-09-12T11:58:24;28.20;99.90
25264;DHT22;13211;51.796;5.808;2022-09-12T12:01:13;28.30;99.90
25264;DHT22;13211;51.796;5.808;2022-09-12T12:03:48;28.30;99.90
25264;DHT22;13211;51.796;5.808;2022-09-12T12:08:53;28.30;99.90
25264;DHT22;13211;51.796;5.808;2022-09-12T12:11:41;28.60;99.90
25264;DHT22;13211;51.796;5.808;2022-09-12T12:23:34;28.80;97.70
25264;DHT22;13211;51.796;5.808;2022-09-12T12:26:03;28.60;99.10
25264;DHT22;13211;51.796;5.808;2022-09-12T12:31:22;28.30;99.90
25264;DHT22;13211;51.796;5.808;2022-09-12T12:33:51;28.50;99.90
25264;DHT22;13211;51.796;5.808;2022-09-12T12:36:39;28.70;99.90
25264;DHT22;13211;51.796;5.808;2022-09-12T12:42:03;28.90;99.10
25264;DHT22;13211;51.796;5.808;2022-09-12T12:47:22;29.00;99.50
25264;DHT22;13211;51.796;5.808;2022-09-12T12:49:56;29.00;98.00
25264;DHT22;13211;51.796;5.808;2022-09-12T12:52:27;29.00;99.50
25264;DHT22;13211;51.796;5.808;2022-09-12T12:55:04;28.90;98.10
25264;DHT22;13211;51.796;5.808;2022-09-12T12:57:48;29.00;99.30
25264;DHT22;13211;51.796;5.808;2022-09-12T13:05:46;29.40;96.60
25264;DHT22;13211;51.796;5.808;2022-09-12T13:11:26;29.10;96.80
25264;DHT22;13211;51.796;5.808;2022-09-12T13:14:00;29.30;96.80
25264;DHT22;13211;51.796;5.808;2022-09-12T13:16:52;29.40;95.60
25264;DHT22;13211;51.796;5.808;2022-09-12T13:19:35;29.30;96.70
25264;DHT22;13211;51.796;5.808;2022-09-12T13:22:08;29.40;96.50
25264;DHT22;13211;51.796;5.808;2022-09-12T13:24:45;29.40;97.10
25264;DHT22;13211;51.796;5.808;2022-09-12T13:27:24;29.70;96.10
25264;DHT22;13211;51.796;5.808;2022-09-12T13:30:12;29.70;95.40
25264;DHT22;13211;51.796;5.808;2022-09-12T13:32:41;29.70;95.50
25264;DHT22;13211;51.796;5.808;2022-09-12T13:35:17;29.60;95.30
25264;DHT22;13211;51.796;5.808;2022-09-12T13:41:34;29.30;95.50
25264;DHT22;13211;51.796;5.808;2022-09-12T13:43:40;29.40;95.20
25264;DHT22;13211;51.796;5.808;2022-09-12T13:46:16;29.10;95.10
25264;DHT22;13211;51.796;5.808;2022-09-12T13:48:46;28.90;94.70
25264;DHT22;13211;51.796;5.808;2022-09-12T13:51:33;28.90;95.30
25264;DHT22;13211;51.796;5.808;2022-09-12T13:54:03;28.90;94.70
25264;DHT22;13211;51.796;5.808;2022-09-12T13:56:31;28.80;95.20
25264;DHT22;13211;51.796;5.808;2022-09-12T13:59:09;28.80;95.00
25264;DHT22;13211;51.796;5.808;2022-09-12T14:01:44;28.70;95.90
25264;DHT22;13211;51.796;5.808;2022-09-12T14:04:24;28.90;96.80
25264;DHT22;13211;51.796;5.808;2022-09-12T14:07:20;28.80;95.90
25264;DHT22;13211;51.796;5.808;2022-09-12T14:09:56;28.70;95.20
25264;DHT22;13211;51.796;5.808;2022-09-12T14:12:27;28.70;96.10
25264;DHT22;13211;51.796;5.808;2022-09-12T14:14:57;28.50;95.00
25264;DHT22;13211;51.796;5.808;2022-09-12T14:17:33;28.20;94.60
25264;DHT22;13211;51.796;5.808;2022-09-12T14:20:15;27.90;95.20
25264;DHT22;13211;51.796;5.808;2022-09-12T14:29:28;27.30;96.90
25264;DHT22;13211;51.796;5.808;2022-09-12T14:32:04;27.00;97.10
25264;DHT22;13211;51.796;5.808;2022-09-12T14:35:21;26.80;97.20
25264;DHT22;13211;51.796;5.808;2022-09-12T14:37:50;26.70;97.60
25264;DHT22;13211;51.796;5.808;2022-09-12T14:40:21;26.60;97.30
25264;DHT22;13211;51.796;5.808;2022-09-12T14:42:55;26.40;98.10
25264;DHT22;13211;51.796;5.808;2022-09-12T14:45:31;26.20;96.90
25264;DHT22;13211;51.796;5.808;2022-09-12T14:48:00;25.90;97.10
25264;DHT22;13211;51.796;5.808;2022-09-12T14:50:51;25.80;97.30
25264;DHT22;13211;51.796;5.808;2022-09-12T14:53:35;25.70;99.30
25264;DHT22;13211;51.796;5.808;2022-09-12T14:56:08;25.60;98.10
25264;DHT22;13211;51.796;5.808;2022-09-12T14:58:40;25.50;99.90
25264;DHT22;13211;51.796;5.808;2022-09-12T15:06:23;25.30;99.90
25264;DHT22;13211;51.796;5.808;2022-09-12T15:09:04;25.20;99.90
25264;DHT22;13211;51.796;5.808;2022-09-12T15:11:34;25.20;99.90
25264;DHT22;13211;51.796;5.808;2022-09-12T15:14:21;25.10;99.90
25264;DHT22;13211;51.796;5.808;2022-09-12T15:16:49;25.10;99.90
25264;DHT22;13211;51.796;5.808;2022-09-12T15:19:16;25.10;99.90
25264;DHT22;13211;51.796;5.808;2022-09-12T15:21:44;25.10;99.90
25264;DHT22;13211;51.796;5.808;2022-09-12T15:24:14;25.00;99.90
25264;DHT22;13211;51.796;5.808;2022-09-12T15:26:42;25.00;99.90
25264;DHT22;13211;51.796;5.808;2022-09-12T15:29:10;24.90;99.90
25264;DHT22;13211;51.796;5.808;2022-09-12T15:31:39;24.80;99.90
25264;DHT22;13211;51.796;5.808;2022-09-12T15:34:08;24.80;99.90
25264;DHT22;13211;51.796;5.808;2022-09-12T15:36:35;24.90;99.90
25264;DHT22;13211;51.796;5.808;2022-09-12T15:39:03;24.80;99.90
25264;DHT22;13211;51.796;5.808;2022-09-12T15:41:35;24.80;99.90
25264;DHT22;13211;51.796;5.808;2022-09-12T15:44:10;24.80;99.90
25264;DHT22;13211;51.796;5.808;2022-09-12T15:46:39;24.70;99.90
25264;DHT22;13211;51.796;5.808;2022-09-12T15:49:07;24.60;99.90
25264;DHT22;13211;51.796;5.808;2022-09-12T15:51:35;24.60;99.90
25264;DHT22;13211;51.796;5.808;2022-09-12T15:54:04;24.50;99.90
25264;DHT22;13211;51.796;5.808;2022-09-12T15:56:32;24.50;99.90
25264;DHT22;13211;51.796;5.808;2022-09-12T15:59:02;24.40;99.90
25264;DHT22;13211;51.796;5.808;2022-09-12T16:01:31;24.30;99.90
25264;DHT22;13211;51.796;5.808;2022-09-12T16:04:03;24.30;99.90
25264;DHT22;13211;51.796;5.808;2022-09-12T16:06:35;24.30;99.90
25264;DHT22;13211;51.796;5.808;2022-09-12T16:09:03;24.30;99.90
25264;DHT22;13211;51.796;5.808;2022-09-12T16:11:31;24.30;99.90
25264;DHT22;13211;51.796;5.808;2022-09-12T16:13:59;24.40;99.90
25264;DHT22;13211;51.796;5.808;2022-09-12T16:16:29;24.40;99.90
25264;DHT22;13211;51.796;5.808;2022-09-12T16:18:57;24.40;99.90
25264;DHT22;13211;51.796;5.808;2022-09-12T16:21:25;24.40;99.90
25264;DHT22;13211;51.796;5.808;2022-09-12T16:23:53;24.40;99.90
25264;DHT22;13211;51.796;5.808;2022-09-12T16:26:21;24.40;99.90
25264;DHT22;13211;51.796;5.808;2022-09-12T16:29:10;24.40;99.90
25264;DHT22;13211;51.796;5.808;2022-09-12T16:31:38;24.40;99.90
25264;DHT22;13211;51.796;5.808;2022-09-12T16:34:06;24.30;99.90
25264;DHT22;13211;51.796;5.808;2022-09-12T16:36:38;24.20;99.90
25264;DHT22;13211;51.796;5.808;2022-09-12T16:39:06;24.20;99.90
25264;DHT22;13211;51.796;5.808;2022-09-12T16:41:34;24.10;99.90
25264;DHT22;13211;51.796;5.808;2022-09-12T16:44:02;24.10;99.90
25264;DHT22;13211;51.796;5.808;2022-09-12T16:46:34;24.00;99.90
25264;DHT22;13211;51.796;5.808;2022-09-12T16:49:03;24.00;99.90
25264;DHT22;13211;51.796;5.808;2022-09-12T16:51:33;23.90;99.90
25264;DHT22;13211;51.796;5.808;2022-09-12T16:54:03;23.80;99.90
25264;DHT22;13211;51.796;5.808;2022-09-12T16:56:31;23.80;99.90
25264;DHT22;13211;51.796;5.808;2022-09-12T16:58:59;23.70;99.90
25264;DHT22;13211;51.796;5.808;2022-09-12T17:01:33;23.70;99.90
25264;DHT22;13211;51.796;5.808;2022-09-12T17:04:03;23.60;99.90
25264;DHT22;13211;51.796;5.808;2022-09-12T17:06:33;23.50;99.90
25264;DHT22;13211;51.796;5.808;2022-09-12T17:09:03;23.40;99.90
25264;DHT22;13211;51.796;5.808;2022-09-12T17:11:36;23.30;99.90
25264;DHT22;13211;51.796;5.808;2022-09-12T17:14:07;23.20;99.90
25264;DHT22;13211;51.796;5.808;2022-09-12T17:16:40;23.10;99.90
25264;DHT22;13211;51.796;5.808;2022-09-12T17:19:16;23.00;99.90
25264;DHT22;13211;51.796;5.808;2022-09-12T17:21:45;23.00;99.90
25264;DHT22;13211;51.796;5.808;2022-09-12T17:24:15;22.90;99.90
25264;DHT22;13211;51.796;5.808;2022-09-12T17:26:45;22.90;99.90
25264;DHT22;13211;51.796;5.808;2022-09-12T17:29:14;22.80;99.90
25264;DHT22;13211;51.796;5.808;2022-09-12T17:31:42;22.70;99.90
25264;DHT22;13211;51.796;5.808;2022-09-12T17:34:11;22.70;99.90
25264;DHT22;13211;51.796;5.808;2022-09-12T17:36:44;22.60;99.90
25264;DHT22;13211;51.796;5.808;2022-09-12T17:39:12;22.50;99.90
25264;DHT22;13211;51.796;5.808;2022-09-12T17:41:46;22.40;99.90
25264;DHT22;13211;51.796;5.808;2022-09-12T17:44:17;22.30;99.90
25264;DHT22;13211;51.796;5.808;2022-09-12T17:46:48;22.30;99.90
25264;DHT22;13211;51.796;5.808;2022-09-12T17:49:16;22.20;99.90
25264;DHT22;13211;51.796;5.808;2022-09-12T17:51:50;22.10;99.90
25264;DHT22;13211;51.796;5.808;2022-09-12T17:54:18;22.00;99.90
25264;DHT22;13211;51.796;5.808;2022-09-12T17:56:49;21.90;99.90
25264;DHT22;13211;51.796;5.808;2022-09-12T17:59:20;21.80;99.90
25264;DHT22;13211;51.796;5.808;2022-09-12T18:01:50;21.70;99.90
25264;DHT22;13211;51.796;5.808;2022-09-12T18:04:37;21.60;99.90
25264;DHT22;13211;51.796;5.808;2022-09-12T18:07:06;21.60;99.90
25264;DHT22;13211;51.796;5.808;2022-09-12T18:09:33;21.40;99.90
25264;DHT22;13211;51.796;5.808;2022-09-12T18:12:03;21.30;99.90
25264;DHT22;13211;51.796;5.808;2022-09-12T18:14:33;21.20;99.90
25264;DHT22;13211;51.796;5.808;2022-09-12T18:17:01;21.20;99.90
25264;DHT22;13211;51.796;5.808;2022-09-12T18:19:29;21.10;99.90
25264;DHT22;13211;51.796;5.808;2022-09-12T18:21:59;21.00;99.90
25264;DHT22;13211;51.796;5.808;2022-09-12T18:24:29;20.90;99.90
25264;DHT22;13211;51.796;5.808;2022-09-12T18:26:57;20.80;99.90
25264;DHT22;13211;51.796;5.808;2022-09-12T18:29:24;20.80;99.90
25264;DHT22;13211;51.796;5.808;2022-09-12T18:31:54;20.70;99.90
25264;DHT22;13211;51.796;5.808;2022-09-12T18:34:27;20.60;99.90
25264;DHT22;13211;51.796;5.808;2022-09-12T18:37:02;20.60;99.90
25264;DHT22;13211;51.796;5.808;2022-09-12T18:39:33;20.40;99.90
25264;DHT22;13211;51.796;5.808;2022-09-12T18:42:01;20.40;99.90
25264;DHT22;13211;51.796;5.808;2022-09-12T18:44:29;20.30;99.90
25264;DHT22;13211;51.796;5.808;2022-09-12T18:46:57;20.30;99.90
25264;DHT22;13211;51.796;5.808;2022-09-12T18:49:25;20.20;99.90
25264;DHT22;13211;51.796;5.808;2022-09-12T18:51:54;20.10;99.90